Time;durP1;ratioP1;P1;durP2;ratioP2;P2;SDS_P1;SDS_P2;PMS_P1;PMS_P2;Temp;Humidity;BMP_temperature;BMP_pressure;BME280_temperature;BME280_humidity;BME280_pressure;Samples;Min_cycle;Max_cycle;Signal;HPM_P1;HPM_P2
2022/03/19 00:01:46;;;;;;;65.82;59.00;;;;;;;-4.12;100.00;103658.84;5086638;28;20040;-80
2022/03/19 00:04:12;;;;;;;64.93;58.35;;;;;;;-3.93;100.00;103653.16;5079420;28;20055;-78
2022/03/19 00:06:40;;;;;;;63.17;57.22;;;;;;;-4.01;100.00;103657.69;5076704;28;20048;-79
2022/03/19 00:09:08;;;;;;;66.60;59.80;;;;;;;-3.74;100.00;103656.09;5080680;28;20113;-80
2022/03/19 00:11:35;;;;;;;58.35;52.95;;;;;;;-4.11;100.00;103657.94;5078009;28;20045;-79
2022/03/19 00:14:02;;;;;;;64.20;58.28;;;;;;;-3.87;100.00;103657.34;5083574;28;20055;-80
2022/03/19 00:16:30;;;;;;;59.22;53.42;;;;;;;-3.60;100.00;103653.16;5067668;28;20110;-79
2022/03/19 00:18:57;;;;;;;57.55;51.97;;;;;;;-3.97;100.00;103659.28;5075312;28;20465;-79
2022/03/19 00:21:24;;;;;;;60.03;54.60;;;;;;;-3.84;100.00;103654.66;5079493;28;20113;-80
2022/03/19 00:23:51;;;;;;;61.90;56.40;;;;;;;-3.95;100.00;103654.06;5080026;28;20129;-79
2022/03/19 00:26:19;;;;;;;63.28;57.22;;;;;;;-3.85;100.00;103646.91;5082520;28;20048;-80
2022/03/19 00:28:46;;;;;;;65.47;59.53;;;;;;;-3.99;100.00;103648.13;5076673;28;20050;-81
2022/03/19 00:31:14;;;;;;;61.25;55.50;;;;;;;-4.03;100.00;103650.81;5088981;28;20056;-80
2022/03/19 00:33:42;;;;;;;60.80;55.13;;;;;;;-4.60;100.00;103649.59;5071645;28;20060;-82
2022/03/19 00:36:09;;;;;;;62.97;56.60;;;;;;;-4.90;100.00;103653.75;5076827;28;20451;-80
2022/03/19 00:38:36;;;;;;;63.90;57.58;;;;;;;-4.68;100.00;103656.72;5079474;28;20044;-81
2022/03/19 00:41:03;;;;;;;62.40;56.65;;;;;;;-4.60;100.00;103654.78;5082359;28;20466;-81
2022/03/19 00:43:30;;;;;;;65.07;59.03;;;;;;;-4.24;100.00;103660.00;5078621;28;20125;-80
2022/03/19 00:45:56;;;;;;;63.17;57.45;;;;;;;-4.29;100.00;103651.50;5070293;28;20051;-80
2022/03/19 00:48:23;;;;;;;60.05;54.45;;;;;;;-4.63;100.00;103647.06;5080400;28;20063;-80
2022/03/19 00:50:51;;;;;;;61.42;55.60;;;;;;;-4.93;100.00;103649.50;5076351;28;20049;-80
2022/03/19 00:53:18;;;;;;;66.10;59.97;;;;;;;-4.85;100.00;103649.31;5085000;28;20451;-79
2022/03/19 00:55:45;;;;;;;68.57;62.10;;;;;;;-4.94;100.00;103644.34;5075568;28;20053;-80
2022/03/19 00:58:13;;;;;;;60.28;54.80;;;;;;;-5.42;100.00;103647.06;5079559;28;20086;-79
2022/03/19 01:00:40;;;;;;;61.08;55.30;;;;;;;-5.00;100.00;103649.66;5058631;28;20048;-80
2022/03/19 01:03:07;;;;;;;63.03;56.60;;;;;;;-5.69;100.00;103645.84;5058675;28;20057;-81
2022/03/19 01:05:34;;;;;;;68.32;60.95;;;;;;;-5.01;100.00;103646.22;5067713;28;20048;-80
2022/03/19 01:08:02;;;;;;;67.38;60.65;;;;;;;-5.01;100.00;103640.19;5080975;28;20080;-79
2022/03/19 01:10:30;;;;;;;58.55;52.60;;;;;;;-4.90;100.00;103646.84;5061058;28;20056;-79
2022/03/19 01:12:58;;;;;;;58.35;52.78;;;;;;;-5.21;100.00;103643.19;5061037;28;20375;-80
2022/03/19 01:15:26;;;;;;;63.50;57.25;;;;;;;-5.04;100.00;103638.50;5064716;28;20052;-79
2022/03/19 01:17:53;;;;;;;68.15;61.85;;;;;;;-5.14;100.00;103629.22;5065259;28;20110;-80
2022/03/19 01:20:21;;;;;;;68.18;58.50;;;;;;;-4.97;100.00;103634.88;5067953;28;20045;-80
2022/03/19 01:22:49;;;;;;;62.00;54.70;;;;;;;-5.18;100.00;103636.19;5062756;28;20102;-79
2022/03/19 01:25:19;;;;;;;99.05;68.88;;;;;;;-5.37;100.00;103637.47;5067426;28;20056;-80
2022/03/19 01:27:48;;;;;;;81.47;68.55;;;;;;;-5.15;100.00;103641.31;5060906;28;20454;-80
2022/03/19 01:30:18;;;;;;;104.97;72.30;;;;;;;-5.88;100.00;103641.03;5067486;28;20049;-80
2022/03/19 01:32:45;;;;;;;78.68;65.68;;;;;;;-5.24;100.00;103641.50;5058301;28;20135;-80
2022/03/19 01:35:12;;;;;;;87.43;66.25;;;;;;;-5.89;100.00;103628.13;5063467;28;20088;-82
2022/03/19 01:37:40;;;;;;;86.30;71.78;;;;;;;-6.16;100.00;103635.53;5064943;28;20455;-79
2022/03/19 01:40:09;;;;;;;85.40;65.47;;;;;;;-6.25;100.00;103628.75;5059919;28;20103;-79
2022/03/19 01:42:38;;;;;;;91.05;70.05;;;;;;;-6.11;100.00;103636.31;5056723;28;20111;-80
2022/03/19 01:45:09;;;;;;;90.05;69.30;;;;;;;-5.82;100.00;103632.28;5060484;28;20432;-80
2022/03/19 01:47:36;;;;;;;89.10;71.68;;;;;;;-6.03;100.00;103626.66;5061738;28;20052;-80
2022/03/19 01:50:04;;;;;;;70.38;62.65;;;;;;;-5.92;100.00;103634.22;5061141;28;20111;-79
2022/03/19 01:52:31;;;;;;;67.72;61.22;;;;;;;-6.21;100.00;103637.31;5064013;28;20053;-80
2022/03/19 01:55:00;;;;;;;59.00;53.33;;;;;;;-6.33;100.00;103628.03;5064879;28;20045;-80
2022/03/19 01:57:33;;;;;;;56.70;50.92;;;;;;;-6.31;100.00;103631.44;5054564;28;20053;-80
2022/03/19 02:00:02;;;;;;;60.25;53.92;;;;;;;-6.18;100.00;103620.91;5055831;28;20056;-79
2022/03/19 02:02:29;;;;;;;56.42;50.63;;;;;;;-6.18;100.00;103639.00;5060318;28;20071;-81
2022/03/19 02:04:57;;;;;;;57.83;52.15;;;;;;;-6.12;100.00;103644.06;5056194;28;20451;-80
2022/03/19 02:07:24;;;;;;;60.50;54.72;;;;;;;-6.24;100.00;103632.19;5062807;28;20055;-80
2022/03/19 02:09:51;;;;;;;63.55;57.13;;;;;;;-6.17;100.00;103632.94;5063119;28;20048;-79
2022/03/19 02:12:18;;;;;;;67.00;60.25;;;;;;;-6.22;100.00;103636.47;5062079;28;20052;-80
2022/03/19 02:14:47;;;;;;;77.43;65.32;;;;;;;-6.48;100.00;103643.78;5066982;28;20109;-80
2022/03/19 02:17:15;;;;;;;79.40;66.45;;;;;;;-6.88;100.00;103633.19;5060308;28;20080;-80
2022/03/19 02:19:49;;;;;;;73.32;65.53;;;;;;;-6.28;100.00;103633.13;5065274;28;20129;-80
2022/03/19 02:22:17;;;;;;;78.05;63.85;;;;;;;-6.91;100.00;103616.84;5063651;28;20056;-80
2022/03/19 02:27:30;;;;;;;79.25;69.07;;;;;;;-6.77;100.00;103621.84;5055612;28;20114;-80
2022/03/19 02:29:58;;;;;;;72.03;64.00;;;;;;;-6.61;100.00;103624.19;5066201;28;20125;-81
2022/03/19 02:32:25;;;;;;;76.18;65.22;;;;;;;-6.78;100.00;103627.88;5057676;28;20062;-79
2022/03/19 02:34:52;;;;;;;69.40;60.75;;;;;;;-7.34;100.00;103626.06;5060498;28;20049;-80
2022/03/19 02:37:19;;;;;;;64.38;56.67;;;;;;;-6.97;100.00;103626.44;5058378;28;20455;-80
2022/03/19 02:39:48;;;;;;;59.88;54.10;;;;;;;-6.98;100.00;103616.97;5052831;28;20061;-80
2022/03/19 02:42:17;;;;;;;64.15;57.85;;;;;;;-7.06;100.00;103627.41;5051703;28;20106;-80
2022/03/19 02:44:44;;;;;;;61.78;55.55;;;;;;;-7.16;100.00;103637.00;5065654;28;20129;-80
2022/03/19 02:47:12;;;;;;;60.45;54.25;;;;;;;-7.07;100.00;103611.94;5053654;28;20049;-80
2022/03/19 02:49:38;;;;;;;64.70;57.85;;;;;;;-7.11;100.00;103618.00;5059330;28;20117;-80
2022/03/19 02:52:06;;;;;;;71.03;63.35;;;;;;;-7.57;100.00;103616.00;5066803;28;20045;-79
2022/03/19 02:54:33;;;;;;;76.63;64.95;;;;;;;-7.67;100.00;103617.84;5060350;28;20455;-80
2022/03/19 02:57:02;;;;;;;66.70;59.28;;;;;;;-7.19;100.00;103620.72;5063907;28;20110;-82
2022/03/19 02:59:31;;;;;;;66.57;59.83;;;;;;;-7.22;100.00;103618.16;5063555;28;20439;-79
2022/03/19 03:02:07;;;;;;;73.18;60.08;;;;;;;-7.51;100.00;103619.34;5134580;22;20460;-79
2022/03/19 03:04:34;;;;;;;83.43;67.72;;;;;;;-7.36;100.00;103618.31;5026707;28;20053;-79
2022/03/19 03:07:03;;;;;;;91.35;68.05;;;;;;;-7.87;100.00;103615.47;5021595;28;20050;-78
2022/03/19 03:09:32;;;;;;;87.57;69.10;;;;;;;-7.43;100.00;103621.88;5022535;28;20112;-80
2022/03/19 03:12:01;;;;;;;88.38;68.28;;;;;;;-7.51;100.00;103619.34;5018843;28;20050;-81
2022/03/19 03:14:30;;;;;;;76.03;65.60;;;;;;;-7.56;100.00;103616.00;5025226;28;20108;-79
2022/03/19 03:17:00;;;;;;;65.32;56.22;;;;;;;-7.73;100.00;103612.75;5028696;28;20049;-79
2022/03/19 03:19:26;;;;;;;56.50;51.22;;;;;;;-8.00;100.00;103622.47;5023044;28;20081;-79
2022/03/19 03:21:53;;;;;;;61.63;55.97;;;;;;;-8.04;100.00;103612.22;5022425;28;20049;-79
2022/03/19 03:24:20;;;;;;;66.63;59.13;;;;;;;-7.60;100.00;103614.31;5023836;28;20053;-78
2022/03/19 03:26:47;;;;;;;63.60;57.30;;;;;;;-7.61;100.00;103622.94;5025608;28;20564;-79
2022/03/19 03:29:14;;;;;;;59.20;53.50;;;;;;;-7.66;100.00;103625.53;5025580;28;20053;-77
2022/03/19 03:31:42;;;;;;;56.15;51.03;;;;;;;-7.80;100.00;103624.00;5022782;28;20051;-79
2022/03/19 03:34:09;;;;;;;52.33;47.28;;;;;;;-7.89;100.00;103632.69;5023126;28;20046;-79
2022/03/19 03:36:36;;;;;;;56.65;51.15;;;;;;;-7.82;100.00;103618.84;5019686;28;20054;-80
2022/03/19 03:39:03;;;;;;;62.45;57.10;;;;;;;-7.86;100.00;103620.63;5019569;28;20135;-78
2022/03/19 03:41:30;;;;;;;59.08;53.63;;;;;;;-7.66;100.00;103620.38;5027403;28;20053;-80
2022/03/19 03:43:56;;;;;;;60.22;54.88;;;;;;;-8.41;100.00;103625.44;5024487;28;20076;-79
2022/03/19 03:46:23;;;;;;;61.25;55.25;;;;;;;-7.94;100.00;103632.72;5025079;28;20049;-79
2022/03/19 03:48:51;;;;;;;58.20;52.65;;;;;;;-8.23;100.00;103627.84;5023142;28;20456;-79
2022/03/19 03:51:19;;;;;;;63.22;56.78;;;;;;;-8.27;100.00;103627.88;5016268;28;20473;-78
2022/03/19 03:53:46;;;;;;;62.08;56.22;;;;;;;-8.17;100.00;103625.22;5022029;28;20057;-79
2022/03/19 03:56:13;;;;;;;63.58;56.80;;;;;;;-8.36;100.00;103628.81;5026807;28;20478;-78
2022/03/19 03:58:41;;;;;;;69.95;62.63;;;;;;;-8.33;100.00;103629.63;5022392;28;20050;-79
2022/03/19 04:01:09;;;;;;;69.20;57.28;;;;;;;-8.14;100.00;103642.38;5032412;28;20123;-80
2022/03/19 04:03:36;;;;;;;86.60;60.75;;;;;;;-8.22;100.00;103641.59;5021709;28;20139;-78
2022/03/19 04:06:05;;;;;;;87.97;66.43;;;;;;;-8.10;100.00;103638.91;5025541;28;20053;-79
2022/03/19 04:08:32;;;;;;;121.65;73.43;;;;;;;-8.05;100.00;103647.44;5019880;28;20469;-79
2022/03/19 04:10:59;;;;;;;133.18;80.60;;;;;;;-8.46;100.00;103642.69;5029808;28;20141;-79
2022/03/19 04:13:26;;;;;;;127.00;76.95;;;;;;;-8.11;100.00;103653.53;5024180;28;20054;-79
2022/03/19 04:15:54;;;;;;;131.48;75.60;;;;;;;-8.07;100.00;103660.38;5031122;28;20053;-79
2022/03/19 04:18:21;;;;;;;139.18;77.30;;;;;;;-8.36;100.00;103654.59;5020670;28;20537;-79
2022/03/19 04:20:48;;;;;;;99.40;66.30;;;;;;;-7.99;100.00;103657.72;5027165;28;20041;-78
2022/03/19 04:23:16;;;;;;;113.30;68.07;;;;;;;-8.50;100.00;103656.44;5023381;28;20131;-79
2022/03/19 04:25:43;;;;;;;115.25;68.97;;;;;;;-8.41;100.00;103649.53;5020376;28;20098;-80
2022/03/19 04:28:11;;;;;;;108.50;68.75;;;;;;;-7.76;100.00;103666.97;5021295;28;20054;-80
2022/03/19 04:30:41;;;;;;;100.85;67.63;;;;;;;-7.84;100.00;103664.47;5028344;28;20370;-79
2022/03/19 04:33:08;;;;;;;117.07;70.47;;;;;;;-7.81;100.00;103664.44;5021513;28;20142;-78
2022/03/19 04:38:22;;;;;;;119.55;69.50;;;;;;;-7.92;100.00;103661.13;5022710;28;20460;-81
2022/03/19 04:40:51;;;;;;;113.57;70.72;;;;;;;-7.96;100.00;103664.56;5021781;28;20047;-79
2022/03/19 04:43:18;;;;;;;119.68;71.72;;;;;;;-7.81;100.00;103661.84;5021560;28;20050;-79
2022/03/19 04:45:45;;;;;;;153.32;85.80;;;;;;;-8.19;100.00;103675.09;5027305;28;20057;-79
2022/03/19 04:48:13;;;;;;;118.35;76.55;;;;;;;-8.26;100.00;103670.84;5024059;28;20116;-80
2022/03/19 04:50:41;;;;;;;108.18;72.38;;;;;;;-7.99;100.00;103677.50;5027287;28;20042;-78
2022/03/19 04:53:08;;;;;;;65.97;58.53;;;;;;;-7.93;100.00;103675.72;5032649;28;20108;-78
2022/03/19 04:55:38;;;;;;;122.18;68.45;;;;;;;-7.90;100.00;103678.25;5024448;28;20049;-79
2022/03/19 04:58:06;;;;;;;95.72;66.30;;;;;;;-7.92;100.00;103681.75;5023512;28;20107;-79
2022/03/19 05:00:33;;;;;;;105.68;74.50;;;;;;;-7.95;100.00;103682.63;5035753;28;20053;-79
2022/03/19 05:03:00;;;;;;;95.97;82.03;;;;;;;-7.75;100.00;103684.16;5028580;28;20057;-78
2022/03/19 05:05:27;;;;;;;126.68;78.68;;;;;;;-7.60;100.00;103689.16;5022669;28;20054;-78
2022/03/19 05:07:55;;;;;;;152.32;81.95;;;;;;;-7.29;100.00;103689.72;5020829;28;20197;-78
2022/03/19 05:13:09;;;;;;;137.32;78.05;;;;;;;-7.19;100.00;103691.31;5018546;28;20159;-79
2022/03/19 05:15:36;;;;;;;114.25;69.88;;;;;;;-6.78;100.00;103692.50;5022304;28;20085;-78
2022/03/19 05:18:03;;;;;;;94.70;63.90;;;;;;;-6.58;100.00;103689.63;5025113;28;20066;-80
2022/03/19 05:20:31;;;;;;;72.07;59.13;;;;;;;-6.51;100.00;103688.66;5028261;28;20465;-79
2022/03/19 05:22:57;;;;;;;126.10;77.88;;;;;;;-6.31;100.00;103688.38;5027671;28;20370;-80
2022/03/19 05:25:24;;;;;;;87.95;64.93;;;;;;;-6.30;100.00;103687.47;5027671;28;20053;-79
2022/03/19 05:27:51;;;;;;;90.05;65.97;;;;;;;-6.10;100.00;103697.53;5022432;28;20041;-79
2022/03/19 05:30:19;;;;;;;85.00;66.20;;;;;;;-6.42;100.00;103695.44;5030208;28;20057;-79
2022/03/19 05:32:46;;;;;;;72.60;59.50;;;;;;;-5.77;100.00;103695.22;5028119;28;20480;-80
2022/03/19 05:35:13;;;;;;;67.63;59.75;;;;;;;-5.70;100.00;103696.81;5033467;28;20053;-80
2022/03/19 05:37:41;;;;;;;79.25;63.58;;;;;;;-5.95;100.00;103693.81;5024208;28;20045;-80
2022/03/19 05:40:09;;;;;;;91.18;69.15;;;;;;;-5.56;100.00;103697.41;5024416;28;20517;-79
2022/03/19 05:42:35;;;;;;;64.70;53.25;;;;;;;-5.42;100.00;103691.94;5028035;28;20046;-79
2022/03/19 05:45:02;;;;;;;62.95;55.35;;;;;;;-5.15;100.00;103694.88;5026891;28;20387;-80
2022/03/19 05:47:30;;;;;;;50.50;45.88;;;;;;;-5.40;100.00;103694.53;5029294;28;20100;-78
2022/03/19 05:49:57;;;;;;;54.88;49.65;;;;;;;-5.16;100.00;103696.63;5025368;28;20108;-77
2022/03/19 05:52:24;;;;;;;57.95;52.20;;;;;;;-5.01;100.00;103694.63;5030098;28;20050;-79
2022/03/19 05:54:50;;;;;;;56.05;50.83;;;;;;;-5.06;100.00;103692.09;5026583;28;20038;-78
2022/03/19 05:57:18;;;;;;;57.33;51.63;;;;;;;-4.59;100.00;103691.97;5032686;28;20124;-78
2022/03/19 05:59:45;;;;;;;61.28;54.67;;;;;;;-4.33;100.00;103691.38;5027050;28;20422;-79
2022/03/19 06:02:12;;;;;;;60.85;52.65;;;;;;;-4.31;100.00;103677.47;5022327;28;20371;-78
2022/03/19 06:04:40;;;;;;;59.50;53.72;;;;;;;-3.95;100.00;103691.28;5030995;28;20505;-79
2022/03/19 06:07:07;;;;;;;66.70;59.13;;;;;;;-3.79;100.00;103693.47;5019294;28;20430;-80
2022/03/19 06:09:33;;;;;;;68.80;58.40;;;;;;;-3.67;100.00;103693.16;5024985;28;20099;-78
2022/03/19 06:12:00;;;;;;;60.63;54.00;;;;;;;-3.38;100.00;103694.13;5026004;28;20049;-79
2022/03/19 06:14:27;;;;;;;71.47;58.75;;;;;;;-3.36;100.00;103690.59;5030072;28;20045;-78
2022/03/19 06:16:54;;;;;;;61.53;55.03;;;;;;;-2.95;100.00;103696.34;5029956;28;20041;-78
2022/03/19 06:19:21;;;;;;;60.05;53.90;;;;;;;-2.77;100.00;103690.59;5023137;28;20057;-78
2022/03/19 06:21:49;;;;;;;60.17;53.88;;;;;;;-2.59;100.00;103691.78;5031357;28;20046;-79
2022/03/19 06:24:15;;;;;;;60.15;54.00;;;;;;;-2.59;100.00;103678.78;5021304;28;20453;-79
2022/03/19 06:26:42;;;;;;;51.85;47.20;;;;;;;-2.39;100.00;103685.97;5028926;28;20061;-78
2022/03/19 06:29:09;;;;;;;51.88;47.08;;;;;;;-2.01;100.00;103672.59;5030483;28;20049;-79
2022/03/19 06:31:36;;;;;;;57.65;51.92;;;;;;;-1.80;100.00;103690.09;5030591;28;20045;-79
2022/03/19 06:34:03;;;;;;;56.67;51.25;;;;;;;-1.41;100.00;103690.44;5015826;28;20120;-79
2022/03/19 06:39:16;;;;;;;51.78;47.40;;;;;;;-0.64;100.00;103698.00;5024785;28;20048;-79
2022/03/19 06:41:42;;;;;;;55.80;50.80;;;;;;;-0.30;100.00;103699.28;5026289;28;20058;-79
2022/03/19 06:44:09;;;;;;;54.50;49.67;;;;;;;-0.05;100.00;103696.53;5026101;28;20119;-79
2022/03/19 06:46:36;;;;;;;53.60;49.22;;;;;;;0.34;100.00;103700.97;5022144;28;20049;-78
2022/03/19 06:49:03;;;;;;;54.00;49.40;;;;;;;0.50;100.00;103694.16;5025798;28;20107;-80
2022/03/19 06:51:30;;;;;;;51.35;47.35;;;;;;;1.00;100.00;103696.28;5024714;28;20053;-78
2022/03/19 06:53:56;;;;;;;50.83;46.55;;;;;;;1.49;100.00;103686.13;5029157;28;20080;-79
2022/03/19 06:56:24;;;;;;;54.15;49.40;;;;;;;1.89;97.89;103693.78;5027228;28;20095;-78
2022/03/19 06:58:51;;;;;;;50.53;46.58;;;;;;;1.88;93.00;103690.31;5023121;28;20050;-78
2022/03/19 07:01:18;;;;;;;53.00;48.42;;;;;;;1.69;90.09;103695.59;5034038;28;20115;-78
2022/03/19 07:03:46;;;;;;;51.70;47.08;;;;;;;2.20;90.89;103696.56;5024164;28;20423;-78
2022/03/19 07:06:13;;;;;;;51.33;47.22;;;;;;;1.91;85.06;103692.81;5024211;28;20049;-79
2022/03/19 07:08:40;;;;;;;52.33;48.15;;;;;;;2.29;83.32;103698.69;5025629;28;20151;-78
2022/03/19 07:11:07;;;;;;;50.72;46.80;;;;;;;2.85;82.81;103696.66;5027643;28;20057;-80
2022/03/19 07:13:35;;;;;;;53.03;48.33;;;;;;;2.54;77.57;103694.81;5023230;28;20038;-79
2022/03/19 07:18:36;;;;;;;53.42;48.75;;;;;;;2.86;79.19;103710.63;5072918;27;20372;-80
2022/03/19 07:21:03;;;;;;;50.42;46.67;;;;;;;2.90;75.57;103696.41;5074624;28;20067;-80
2022/03/19 07:23:30;;;;;;;53.40;49.08;;;;;;;3.17;76.24;103708.03;5073833;28;20110;-79
2022/03/19 07:25:59;;;;;;;52.78;48.75;;;;;;;2.97;76.22;103708.28;5082384;28;20048;-81
2022/03/19 07:28:26;;;;;;;54.78;50.28;;;;;;;2.71;73.60;103707.06;5078856;28;20040;-79
2022/03/19 07:30:53;;;;;;;53.08;48.58;;;;;;;3.27;76.00;103711.03;5073130;28;20056;-81
2022/03/19 07:33:20;;;;;;;57.42;52.13;;;;;;;2.51;74.69;103711.59;5072536;28;20480;-80
2022/03/19 07:35:48;;;;;;;54.20;49.75;;;;;;;3.03;73.74;103710.59;5073201;28;20114;-80
2022/03/19 07:38:15;;;;;;;55.05;50.63;;;;;;;3.06;72.20;103712.19;5072774;28;20106;-80
2022/03/19 07:43:26;;;;;;;55.17;50.67;;;;;;;3.10;72.33;103703.22;5078069;28;20051;-80
2022/03/19 07:45:54;;;;;;;54.75;50.45;;;;;;;3.83;79.82;103696.44;5080245;28;20048;-80
2022/03/19 07:48:21;;;;;;;53.35;49.10;;;;;;;3.62;71.75;103698.50;5085240;28;20044;-80
2022/03/19 07:50:49;;;;;;;52.63;48.67;;;;;;;3.81;72.02;103710.59;5078672;28;20057;-80
2022/03/19 07:53:16;;;;;;;54.30;50.15;;;;;;;4.39;70.45;103701.94;5076782;28;20110;-80
2022/03/19 07:55:42;;;;;;;51.10;47.17;;;;;;;4.15;68.16;103703.41;5082521;28;20113;-79
2022/03/19 07:58:10;;;;;;;53.97;49.80;;;;;;;3.81;66.20;103700.94;5078265;28;20476;-80
2022/03/19 08:00:37;;;;;;;50.50;46.90;;;;;;;4.31;71.69;103699.75;5086872;28;20055;-78
2022/03/19 08:03:04;;;;;;;50.58;46.83;;;;;;;4.32;66.66;103709.31;5078575;28;20400;-79
2022/03/19 08:05:31;;;;;;;50.65;46.95;;;;;;;4.46;67.97;103710.28;5068345;28;20049;-80
2022/03/19 08:07:59;;;;;;;51.88;48.03;;;;;;;4.44;63.96;103712.16;5069346;28;20049;-81
2022/03/19 08:10:26;;;;;;;51.53;47.80;;;;;;;4.47;61.13;103711.97;5070210;28;20048;-81
2022/03/19 08:12:59;;;;;;;52.28;48.47;;;;;;;4.65;61.97;103718.75;5075457;28;20117;-78
2022/03/19 08:15:26;;;;;;;53.70;49.42;;;;;;;5.30;60.53;103715.59;5070577;28;20469;-81
2022/03/19 08:17:52;;;;;;;53.30;49.42;;;;;;;4.67;62.75;103716.88;5080111;28;20075;-80
2022/03/19 08:20:19;;;;;;;53.03;48.92;;;;;;;4.09;64.28;103709.84;5076571;28;20451;-80
2022/03/19 08:22:47;;;;;;;54.78;50.90;;;;;;;5.61;59.31;103697.78;5072771;28;20481;-78
2022/03/19 08:25:15;;;;;;;56.63;52.42;;;;;;;5.18;56.65;103706.66;5070674;28;20045;-78
2022/03/19 08:27:42;;;;;;;52.70;49.03;;;;;;;5.16;56.40;103716.47;5069030;28;20563;-82
2022/03/19 08:30:09;;;;;;;53.72;49.75;;;;;;;5.27;58.23;103714.00;5067670;28;20048;-79
2022/03/19 08:32:36;;;;;;;52.78;48.85;;;;;;;5.51;59.46;103697.53;5069560;28;20420;-78
2022/03/19 08:35:03;;;;;;;54.45;50.65;;;;;;;6.10;58.35;103695.38;5059378;28;20109;-78
2022/03/19 08:37:32;;;;;;;54.53;50.72;;;;;;;5.84;56.54;103701.53;5067208;28;20048;-80
2022/03/19 08:42:41;;;;;;;54.40;50.17;;;;;;;6.19;58.24;103699.19;5062251;28;20455;-80
2022/03/19 08:45:09;;;;;;;73.47;68.25;;;;;;;5.51;56.27;103687.00;5065705;28;20102;-80
2022/03/19 08:47:36;;;;;;;70.72;65.90;;;;;;;6.09;53.79;103690.22;5066397;28;20049;-79
2022/03/19 08:50:03;;;;;;;76.05;70.55;;;;;;;6.14;59.83;103696.88;5064149;28;20102;-79
2022/03/19 08:52:30;;;;;;;74.35;69.00;;;;;;;4.95;53.78;103696.72;5063650;28;20056;-79
2022/03/19 08:54:57;;;;;;;78.22;72.40;;;;;;;4.67;61.64;103689.72;5066188;28;20121;-79
2022/03/19 08:57:23;;;;;;;81.45;74.95;;;;;;;5.09;60.29;103696.72;5063812;28;20045;-80
2022/03/19 08:59:51;;;;;;;81.72;75.32;;;;;;;5.26;57.85;103703.53;5069250;28;20493;-79
2022/03/19 09:02:18;;;;;;;53.33;49.42;;;;;;;5.55;55.96;103695.56;5062159;28;20468;-79
2022/03/19 09:04:45;;;;;;;52.55;48.70;;;;;;;5.87;58.36;103688.13;5058787;28;20045;-80
2022/03/19 09:07:14;;;;;;;51.20;47.40;;;;;;;5.48;57.96;103685.41;5061234;28;20048;-80
2022/03/19 09:09:41;;;;;;;52.40;48.95;;;;;;;5.17;62.67;103699.69;5062835;28;20080;-79
2022/03/19 09:12:08;;;;;;;55.50;51.58;;;;;;;5.59;58.31;103687.31;5052058;28;20049;-80
2022/03/19 09:14:36;;;;;;;55.22;51.33;;;;;;;4.41;55.54;103697.41;5058672;28;20185;-79
2022/03/19 09:17:05;;;;;;;54.33;50.38;;;;;;;4.79;59.62;103700.31;5066888;28;20052;-81
2022/03/19 09:19:32;;;;;;;53.67;49.75;;;;;;;5.12;54.22;103698.31;5069037;28;20117;-78
2022/03/19 09:22:00;;;;;;;53.78;49.92;;;;;;;5.44;54.15;103688.31;5067081;28;20436;-79
2022/03/19 09:24:26;;;;;;;53.53;49.58;;;;;;;5.60;54.42;103686.41;5062034;28;20066;-78
2022/03/19 09:26:53;;;;;;;52.53;48.83;;;;;;;5.43;57.87;103705.94;5061536;28;20110;-79
2022/03/19 09:29:20;;;;;;;51.15;47.50;;;;;;;4.90;58.69;103704.94;5066164;28;20048;-78
2022/03/19 09:31:47;;;;;;;53.58;49.58;;;;;;;4.56;54.60;103696.47;5056724;28;20042;-78
2022/03/19 09:34:15;;;;;;;52.58;48.60;;;;;;;5.19;56.60;103703.09;5064844;28;20048;-79
2022/03/19 09:36:46;;;;;;;53.88;50.28;;;;;;;6.47;56.50;103697.31;5066864;28;20071;-78
2022/03/19 09:39:13;;;;;;;53.20;49.67;;;;;;;6.26;54.35;103691.69;5065880;28;20133;-79
2022/03/19 09:41:42;;;;;;;52.63;49.03;;;;;;;5.57;53.08;103694.50;5062172;28;20451;-79
2022/03/19 09:44:11;;;;;;;51.88;48.45;;;;;;;6.01;58.07;103693.38;5068048;28;20127;-79
2022/03/19 09:46:37;;;;;;;52.05;48.17;;;;;;;5.60;52.54;103691.66;5063915;28;20127;-78
2022/03/19 09:49:04;;;;;;;53.40;49.70;;;;;;;5.81;52.16;103694.69;5067674;28;20066;-80
2022/03/19 09:51:35;;;;;;;54.08;49.97;;;;;;;5.94;53.08;103686.81;5064689;28;20501;-80
2022/03/19 09:54:02;;;;;;;52.38;48.88;;;;;;;5.93;53.07;103691.25;5059381;28;20469;-79
2022/03/19 09:56:30;;;;;;;55.35;51.47;;;;;;;5.43;51.14;103692.75;5064906;28;20109;-80
2022/03/19 09:58:57;;;;;;;53.85;49.90;;;;;;;6.34;51.89;103684.94;5069978;28;20115;-79
2022/03/19 10:01:25;;;;;;;58.70;54.78;;;;;;;6.38;50.53;103688.22;5055370;28;20465;-78
2022/03/19 10:03:51;;;;;;;60.63;56.60;;;;;;;5.69;50.56;103692.88;5055232;28;20140;-79
2022/03/19 10:09:03;;;;;;;53.38;49.53;;;;;;;6.14;51.75;103696.88;5062895;28;20428;-79
2022/03/19 10:11:32;;;;;;;53.30;49.90;;;;;;;6.12;51.46;103690.84;5054127;28;20499;-78
2022/03/19 10:14:00;;;;;;;54.05;50.17;;;;;;;5.23;51.88;103698.47;5057531;28;20131;-79
2022/03/19 10:16:29;;;;;;;56.50;52.70;;;;;;;5.42;50.44;103687.59;5068540;28;20480;-78
2022/03/19 10:18:58;;;;;;;55.35;51.78;;;;;;;5.14;49.70;103696.41;5057000;28;20152;-78
2022/03/19 10:21:25;;;;;;;51.92;48.60;;;;;;;4.87;50.50;103697.22;5067894;28;20064;-79
2022/03/19 10:23:52;;;;;;;53.40;49.83;;;;;;;4.59;52.53;103698.91;5061523;28;20044;-78
2022/03/19 10:26:29;;;;;;;55.85;52.25;;;;;;;5.64;51.13;103681.75;5062052;28;20045;-80
2022/03/19 10:28:58;;;;;;;55.08;51.35;;;;;;;5.61;53.56;103685.44;5064660;28;20118;-79
2022/03/19 10:31:35;;;;;;;55.92;52.28;;;;;;;4.47;51.77;103697.03;5055078;28;20120;-79
2022/03/19 10:34:05;;;;;;;59.10;55.40;;;;;;;4.39;52.39;103698.41;5059982;28;20400;-80
2022/03/19 10:36:34;;;;;;;57.97;54.38;;;;;;;5.01;51.70;103686.66;5063679;28;20064;-79
2022/03/19 10:39:01;;;;;;;53.10;49.80;;;;;;;5.41;49.30;103683.25;5061292;28;20142;-80
2022/03/19 10:41:34;;;;;;;58.13;54.15;;;;;;;6.22;48.13;103682.31;5062613;28;20056;-79
2022/03/19 10:44:10;;;;;;;57.85;53.92;;;;;;;4.95;51.29;103679.13;5063755;28;20092;-79
2022/03/19 10:46:37;;;;;;;55.80;52.20;;;;;;;5.88;49.95;103689.84;5062005;28;20056;-79
2022/03/19 10:49:11;;;;;;;58.67;54.88;;;;;;;6.07;49.56;103690.31;5063792;28;20040;-79
2022/03/19 10:51:40;;;;;;;59.30;55.45;;;;;;;6.00;48.96;103685.56;5060727;28;20505;-79
2022/03/19 10:54:07;;;;;;;52.65;49.05;;;;;;;5.38;51.93;103676.38;5061002;28;20075;-80
2022/03/19 10:56:36;;;;;;;54.30;50.50;;;;;;;5.78;57.11;103667.66;5051403;28;20497;-78
2022/03/19 10:59:02;;;;;;;56.40;52.67;;;;;;;5.42;49.33;103675.25;5064469;28;20457;-79
2022/03/19 11:01:30;;;;;;;55.63;51.67;;;;;;;6.31;47.57;103666.69;5054071;28;20052;-78
2022/03/19 11:03:57;;;;;;;58.10;54.17;;;;;;;6.06;47.60;103658.78;5056995;28;21243;-81
2022/03/19 11:06:26;;;;;;;56.67;52.97;;;;;;;5.20;48.15;103662.59;5064295;28;20452;-80
2022/03/19 11:08:56;;;;;;;57.38;53.78;;;;;;;5.80;49.99;103652.56;5047351;28;20099;-79
2022/03/19 11:11:32;;;;;;;53.80;50.40;;;;;;;5.36;49.71;103651.09;5068389;28;20048;-79
2022/03/19 11:14:03;;;;;;;56.25;52.78;;;;;;;6.48;53.02;103652.31;5065433;28;20091;-78
2022/03/19 11:16:36;;;;;;;60.17;56.35;;;;;;;6.68;46.48;103647.41;5056824;28;20061;-80
2022/03/19 11:19:03;;;;;;;;;;;;;;;6.81;45.91;103648.25;5054398;28;20040;-79
2022/03/19 11:21:32;;;;;;;57.22;53.53;;;;;;;6.09;48.65;103648.00;5055732;28;19920;-79
2022/03/19 11:24:05;;;;;;;61.88;58.08;;;;;;;5.61;48.28;103637.13;5056452;28;20474;-79
2022/03/19 11:26:33;;;;;;;55.78;52.38;;;;;;;6.85;48.43;103647.91;5062381;28;20053;-79
2022/03/19 11:29:01;;;;;;;58.25;54.55;;;;;;;8.16;47.17;103646.13;5063336;28;20048;-79
2022/03/19 11:31:30;;;;;;;57.85;54.35;;;;;;;6.34;47.77;103640.06;5065818;28;20107;-78